Subpeak Weather - Last 24 Hours


View Last Hour    View Last 24 Hours

Time
Avg. Air Temp
Dew Point
Avg. Rel Humidity
Avg. 2 Min Wind Speed
Max Gust Velocity
MGV Time
MGV Direction
Avg. Spot Wind Velocity
2014-12-18 05:20:00-7° C-18° C41%18 km/h20 km/h2014-12-18 05:16:00S18 km/h
2014-12-18 04:20:00-7° C-18° C42%17 km/h20 km/h2014-12-18 04:17:1017 km/h
2014-12-18 03:20:00-7° C-18° C42%18 km/h23 km/h2014-12-18 03:16:00SE19 km/h
2014-12-18 02:20:00-7° C-18° C41%12 km/h14 km/h2014-12-18 02:18:10SE12 km/h
2014-12-18 01:20:00-7° C-18° C41%15 km/h20 km/h2014-12-18 01:17:10SE15 km/h
2014-12-18 00:20:00-7° C-19° C40%15 km/h21 km/h2014-12-18 00:16:00SE15 km/h
2014-12-17 23:20:00-8° C-19° C40%20 km/h28 km/h2014-12-17 23:17:10SE22 km/h
2014-12-17 22:15:00-8° C-19° C40%18 km/h22 km/h2014-12-17 22:13:10SE18 km/h
2014-12-17 21:15:00-7° C-18° C42%15 km/h19 km/h2014-12-17 21:15:10S15 km/h
2014-12-17 20:15:00-8° C-18° C42%14 km/h21 km/h2014-12-17 20:11:00SE15 km/h
2014-12-17 19:15:00-8° C-18° C42%18 km/h19 km/h2014-12-17 19:13:10SE18 km/h
2014-12-17 18:15:00-8° C-18° C43%14 km/h19 km/h2014-12-17 18:11:00SE15 km/h
2014-12-17 17:15:00-8° C-18° C43%12 km/h17 km/h2014-12-17 17:14:10SE12 km/h
2014-12-17 16:15:00-8° C-18° C43%19 km/h22 km/h2014-12-17 16:15:10SE17 km/h
2014-12-17 15:15:00-8° C-18° C42%17 km/h20 km/h2014-12-17 15:15:10SE17 km/h
2014-12-17 14:15:00-8° C-19° C39%10 km/h15 km/h2014-12-17 14:14:10E10 km/h
2014-12-17 13:15:00-8° C-19° C41%10 km/h21 km/h2014-12-17 13:12:10E11 km/h
2014-12-17 12:15:00-8° C-19° C41%20 km/h28 km/h2014-12-17 12:12:10SE23 km/h
2014-12-17 11:15:00-8° C-20° C38%17 km/h23 km/h2014-12-17 11:13:10S16 km/h
2014-12-17 10:15:00-8° C-19° C41%18 km/h26 km/h2014-12-17 10:12:10SE18 km/h
2014-12-17 09:15:00-8° C-18° C44%20 km/h28 km/h2014-12-17 09:15:10SE19 km/h
2014-12-17 08:15:00-8° C-17° C49%19 km/h21 km/h2014-12-17 08:14:10SE18 km/h
2014-12-17 07:15:00-8° C-17° C49%17 km/h20 km/h2014-12-17 07:12:10SE18 km/h
2014-12-17 06:15:00-8° C-17° C49%11 km/h13 km/h2014-12-17 06:15:10SE11 km/h